Latest Weather Observations for Armidale Airport

IDN60801

Issued at 10:03 pm EST Monday 26 September 2016 (issued every 30 minutes, with the page automatically refreshed every 10 minutes)

About weather observations | Map of weather stations | Latest weather observations for NSW | Other Formats
Station Details ID: 056238 Name: ARMIDALE AIRPORT AWS Lat: -30.53 Lon: 151.62 Height: 1079.0 m
Data from the previous 72 hours. | See also: Recent months at Armidale Airport
Date/Time
EST
Temp
°C
App
Temp
°C
Dew
Point
°C
Rel
Hum
%
Delta-T
°C
Wind Press
QNH
hPa
Press
MSL
hPa
Rain since
9am
mm
Dir  Spd
km/h
Gust
km/h
Spd
kts
Gust
kts
26/10:00pm 7.5 2.6 5.0 84 1.2 W 20 28 11 15 1015.3 1013.2 0.0
26/09:30pm 8.1 3.5 5.6 84 1.2 W 19 24 10 13 1015.4 1013.3 0.0
26/09:00pm 8.4 2.0 5.2 80 1.5 W 28 35 15 19 1014.9 1012.9 0.0
26/08:30pm 9.1 3.9 5.5 78 1.7 W 22 35 12 19 1015.0 1013.0 0.0
26/08:00pm 9.2 4.0 5.4 77 1.8 W 22 28 12 15 1014.8 1012.8 0.0
26/07:30pm 9.7 4.5 5.3 74 2.1 W 22 32 12 17 1014.5 1012.4 0.0
26/07:00pm 8.6 4.4 4.0 73 2.1 WNW 15 17 8 9 1013.7 1011.6 0.0
26/06:30pm 8.8 5.4 3.8 71 2.3 WNW 11 13 6 7 1013.3 1011.2 0.0
26/06:00pm 9.8 5.8 2.9 62 3.2 WNW 13 15 7 8 1012.9 1010.8 0.0
26/05:30pm 12.1 7.1 1.1 47 4.9 WNW 17 24 9 13 1012.6 1010.5 0.0
26/05:00pm 13.4 7.3 0.4 41 5.8 WNW 22 26 12 14 1012.5 1010.4 0.0
26/04:30pm 14.3 8.1 1.9 43 5.8 WNW 24 32 13 17 1012.3 1010.2 0.0
26/04:00pm 15.0 8.9 5.0 51 5.0 WNW 26 37 14 20 1012.1 1010.0 0.0
26/03:30pm 14.8 8.6 2.4 43 5.9 WNW 24 30 13 16 1012.0 1009.9 0.0
26/03:00pm 15.2 9.7 5.7 53 4.8 W 24 30 13 16 1012.3 1010.2 0.0
26/02:30pm 14.8 9.5 5.1 52 4.8 WNW 22 33 12 18 1012.6 1010.5 0.0
26/02:00pm 15.0 9.9 5.8 54 4.7 W 22 32 12 17 1012.7 1010.6 0.0
26/01:30pm 14.6 9.3 3.1 46 5.5 WNW 20 28 11 15 1013.0 1010.9 0.0
26/01:00pm 14.8 9.7 4.2 49 5.2 WNW 20 30 11 16 1013.6 1011.5 0.0
26/12:30pm 13.8 9.1 5.2 56 4.3 WNW 19 26 10 14 1013.8 1011.7 0.0
26/12:00pm 13.8 9.0 5.7 58 4.1 WNW 20 30 11 16 1014.1 1012.1 0.0
26/11:30am 13.8 9.4 6.4 61 3.8 W 19 32 10 17 1014.6 1012.5 0.0
26/11:00am 13.6 8.8 5.7 59 4.0 W 20 26 11 14 1014.8 1012.8 0.0
26/10:30am 12.7 7.9 5.4 61 3.6 W 20 28 11 15 1015.1 1013.1 0.0
26/10:00am 11.7 6.7 4.7 62 3.4 W 20 26 11 14 1014.9 1012.9 0.0
26/09:30am 11.2 6.7 6.3 72 2.4 W 19 24 10 13 1015.0 1013.0 0.0
26/09:00am 10.2 5.1 6.2 76 2.0 W 22 26 12 14 1014.9 1012.9 5.6
26/08:30am 9.6 5.4 7.5 87 1.1 W 19 24 10 13 1014.7 1012.7 5.6
26/08:09am 9.0 4.8 8.1 94 0.5 W 20 26 11 14 1014.8 1012.8 5.6
26/08:00am 8.7 4.5 8.3 97 0.2 W 20 26 11 14 1014.8 1012.8 5.6
26/07:30am 8.1 3.8 7.8 98 0.2 W 20 26 11 14 1014.9 1012.9 5.6
26/07:00am 7.4 2.9 7.1 98 0.1 W 20 26 11 14 1014.7 1012.7 5.6
26/06:30am 7.1 2.6 7.0 99 0.0 W 20 26 11 14 1014.4 1012.3 5.6
26/06:00am 7.2 3.7 7.1 99 0.0 W 15 20 8 11 1013.9 1011.9 5.6
26/05:30am 7.1 4.3 7.0 99 0.0 W 11 15 6 8 1013.8 1011.7 5.6
26/05:00am 6.7 3.5 6.7 100 0.0 W 13 15 7 8 1013.8 1011.7 5.6
26/04:55am 7.1 4.0 7.1 100 0.0 W 13 19 7 10 1013.8 1011.7 5.6
26/04:36am 7.4 3.2 7.4 100 0.0 W 19 24 10 13 1013.5 1011.4 5.6
26/04:30am 7.5 4.1 7.5 100 0.0 W 15 20 8 11 1013.5 1011.4 5.6
26/04:00am 7.4 4.3 7.3 99 0.0 W 13 17 7 9 1013.3 1011.2 5.6
26/03:30am 7.6 4.2 7.5 99 0.0 W 15 19 8 10 1013.4 1011.3 5.6
26/03:00am 7.2 4.1 7.1 99 0.0 W 13 17 7 9 1013.4 1011.3 5.6
26/02:56am 7.2 4.1 7.1 99 0.0 W 13 15 7 8 1013.4 1011.3 5.6
26/02:36am 7.7 4.3 7.6 99 0.1 W 15 20 8 11 1013.4 1011.3 5.6
26/02:30am 7.9 4.5 7.8 99 0.1 W 15 20 8 11 1013.4 1011.3 5.6
26/02:00am 8.2 4.5 7.9 98 0.2 W 17 20 9 11 1013.6 1011.5 5.6
26/01:30am 8.1 4.0 8.0 99 0.1 W 19 22 10 12 1013.5 1011.4 5.6
26/01:00am 8.2 4.5 8.1 99 0.1 W 17 20 9 11 1013.6 1011.5 5.6
26/12:43am 8.4 4.8 8.3 99 0.1 W 17 20 9 11 1013.5 1011.4 5.6
26/12:30am 8.4 4.8 8.3 99 0.1 W 17 19 9 10 1013.7 1011.6 5.6
26/12:23am 8.5 5.3 8.4 99 0.1 W 15 19 8 10 1013.7 1011.6 5.6
26/12:00am 8.5 4.3 8.4 99 0.1 W 20 26 11 14 1013.6 1011.5 5.6
 
Date/Time
EST
Temp
°C
App
Temp
°C
Dew
Point
°C
Rel
Hum
%
Delta-T
°C
Wind Press
QNH
hPa
Press
MSL
hPa
Rain since
9am
mm
Dir  Spd
km/h
Gust
km/h
Spd
kts
Gust
kts
25/11:30pm 8.7 5.2 8.6 99 0.1 W 17 22 9 12 1013.8 1011.7 5.2
25/11:00pm 8.8 5.3 8.7 99 0.1 W 17 20 9 11 1013.8 1011.7 5.2
25/10:30pm 8.6 5.0 8.5 99 0.1 W 17 22 9 12 1013.8 1011.7 5.2
25/10:14pm 8.3 5.4 8.2 99 0.1 W 13 17 7 9 1013.4 1011.3 5.2
25/10:00pm 8.1 5.2 8.0 99 0.1 W 13 15 7 8 1013.1 1011.1 5.2
25/09:30pm 8.5 5.2 8.2 98 0.2 W 15 19 8 10 1013.1 1011.1 5.2
25/09:00pm 8.8 5.3 8.7 99 0.1 W 17 22 9 12 1013.0 1010.9 5.2
25/08:30pm 9.1 6.4 8.8 98 0.2 W 13 17 7 9 1013.0 1010.9 5.2
25/08:22pm 9.2 6.1 8.9 98 0.2 W 15 17 8 9 1013.0 1010.9 5.2
25/08:04pm 9.5 6.9 9.2 98 0.2 W 13 17 7 9 1013.0 1010.9 5.2
25/08:00pm 9.4 6.7 9.1 98 0.2 W 13 17 7 9 1012.9 1010.8 5.2
25/07:30pm 9.3 5.9 9.0 98 0.2 W 17 20 9 11 1012.8 1010.7 5.2
25/07:00pm 9.1 5.2 8.8 98 0.2 W 19 24 10 13 1012.4 1010.3 5.2
25/06:30pm 9.5 5.2 9.2 98 0.2 W 22 28 12 15 1011.8 1009.7 5.2
25/06:12pm 9.9 5.3 9.6 98 0.2 WSW 24 30 13 16 1011.5 1009.4 5.2
25/06:00pm 10.0 5.0 9.7 98 0.2 WSW 26 39 14 21 1011.1 1009.0 5.2
25/05:52pm 10.2 5.3 9.9 98 0.2 WSW 26 35 14 19 1011.0 1008.9 5.0
25/05:30pm 11.3 7.1 9.6 89 0.9 WSW 22 28 12 15 1010.6 1008.4 4.0
25/05:00pm 11.2 7.3 9.3 88 1.0 WSW 20 28 11 15 1010.4 1008.2 4.0
25/04:30pm 12.3 5.8 9.0 80 1.8 W 33 43 18 23 1009.8 1007.7 4.0
25/04:00pm 12.4 6.2 9.4 82 1.6 W 32 44 17 24 1009.5 1007.3 4.0
25/03:36pm 11.9 6.2 9.8 87 1.1 W 30 43 16 23 1009.3 1007.1 4.0
25/03:30pm 12.1 5.4 9.5 84 1.4 W 35 46 19 25 1009.1 1007.0 4.0
25/03:00pm 12.7 7.8 10.1 84 1.4 WNW 26 33 14 18 1008.7 1006.5 4.0
25/02:48pm 13.1 8.0 10.5 84 1.4 WNW 28 39 15 21 1008.6 1006.4 4.0
25/02:41pm 13.5 8.9 10.9 84 1.4 WNW 26 35 14 19 1008.6 1006.4 4.0
25/02:30pm 12.6 6.6 10.1 85 1.4 WNW 32 43 17 23 1008.6 1006.4 4.0
25/02:25pm 12.8 6.9 10.5 86 1.3 WNW 32 43 17 23 1008.5 1006.3 4.0
25/02:24pm 12.7 6.6 9.9 83 1.5 WNW 32 43 17 23 1008.5 1006.3 4.0
25/02:07pm 11.9 6.8 10.5 91 0.8 WNW 28 46 15 25 1008.5 1006.3 4.0
25/02:00pm 12.4 6.7 11.0 91 0.8 WNW 32 41 17 22 1008.5 1006.3 4.0
25/01:39pm 11.9 6.9 11.1 95 0.4 WNW 28 37 15 20 1008.5 1006.3 4.0
25/01:30pm 11.5 6.9 11.2 98 0.2 WNW 26 35 14 19 1008.5 1006.3 4.0
25/01:08pm 11.0 5.9 10.7 98 0.2 WNW 28 35 15 19 1008.8 1006.6 4.0
25/01:00pm 10.4 5.4 9.6 95 0.4 WNW 26 37 14 20 1008.8 1006.6 4.0
25/12:30pm 11.8 6.0 9.5 86 1.2 WNW 30 39 16 21 1008.8 1006.6 4.0
25/12:00pm 11.9 6.8 10.5 91 0.8 WNW 28 39 15 21 1009.1 1007.0 4.0
25/11:30am 10.6 4.7 10.3 98 0.2 WNW 32 41 17 22 1009.5 1007.3 4.0
25/11:00am 9.3 2.1 9.0 98 0.2 WNW 37 50 20 27 1009.7 1007.5 4.0
25/10:45am 9.5 3.1 9.2 98 0.2 WNW 33 43 18 23 1009.9 1007.8 3.6
25/10:30am 9.2 2.3 8.9 98 0.2 W 35 46 19 25 1010.0 1007.9 3.2
25/10:19am 9.4 2.2 9.1 98 0.2 W 37 56 20 30 1009.9 1007.8 2.0
25/10:09am 9.9 3.6 9.6 98 0.2 W 33 50 18 27 1009.9 1007.8 1.2
25/10:00am 10.7 5.9 10.4 98 0.2 WNW 26 39 14 21 1009.5 1007.3 0.4
25/09:30am 11.5 6.7 10.4 93 0.6 NNW 26 33 14 18 1009.0 1006.9 0.0
25/09:00am 9.7 5.3 8.8 94 0.5 NW 22 30 12 16 1009.5 1007.3 0.2
25/08:54am 10.3 6.2 10.0 98 0.2 NW 22 28 12 15 1009.7 1007.5 0.2
25/08:30am 10.0 5.2 8.8 92 0.6 WNW 24 33 13 18 1009.6 1007.4 0.0
25/08:00am 11.0 6.4 8.1 82 1.5 WNW 22 26 12 14 1009.6 1007.4 0.0
25/07:30am 10.3 6.0 7.0 80 1.7 WNW 19 28 10 15 1009.5 1007.3 0.0
25/07:00am 9.9 6.6 6.6 80 1.6 NW 13 20 7 11 1009.4 1007.2 0.0
25/06:30am 9.0 4.8 5.7 80 1.6 NNW 17 20 9 11 1009.0 1006.9 0.0
25/06:00am 9.3 5.7 6.7 84 1.3 N 15 20 8 11 1009.0 1006.9 0.0
25/05:30am 9.3 6.2 7.3 87 1.0 N 13 15 7 8 1009.0 1006.9 0.0
25/05:00am 9.8 5.6 5.8 76 2.0 NNW 17 20 9 11 1009.6 1007.4 0.0
25/04:30am 9.7 5.1 6.4 80 1.6 NW 20 28 11 15 1009.7 1007.5 0.0
25/04:00am 9.6 5.7 8.8 95 0.4 WNW 19 24 10 13 1010.0 1007.9 0.0
25/03:30am 9.8 5.4 9.0 95 0.4 W 22 30 12 16 1010.3 1008.1 0.0
25/03:00am 9.9 6.5 9.3 96 0.3 WNW 17 20 9 11 1009.9 1007.8 0.0
25/02:30am 9.7 7.1 9.2 97 0.3 WNW 13 17 7 9 1009.7 1007.5 0.0
25/02:00am 9.6 7.4 9.3 98 0.2 NW 11 13 6 7 1009.9 1007.8 0.0
25/01:30am 9.8 7.1 9.0 95 0.4 WNW 13 15 7 8 1010.5 1008.3 0.0
25/01:00am 9.8 7.1 8.9 94 0.5 NW 13 17 7 9 1010.8 1008.7 0.0
25/12:30am 10.0 7.3 8.9 93 0.6 NW 13 15 7 8 1011.1 1009.0 0.0
25/12:00am 10.4 7.8 9.2 92 0.6 WNW 13 17 7 9 1011.6 1009.5 0.0
 
Date/Time
EST
Temp
°C
App
Temp
°C
Dew
Point
°C
Rel
Hum
%
Delta-T
°C
Wind Press
QNH
hPa
Press
MSL
hPa
Rain since
9am
mm
Dir  Spd
km/h
Gust
km/h
Spd
kts
Gust
kts
24/11:30pm 10.0 7.6 8.8 92 0.6 NW 11 13 6 7 1011.5 1009.4 0.0
24/11:00pm 10.5 6.5 8.4 87 1.1 NW 19 22 10 12 1011.7 1009.6 0.0
24/10:30pm 10.0 6.3 7.9 87 1.1 NW 17 19 9 10 1011.9 1009.8 0.0
24/10:00pm 10.2 6.1 7.8 85 1.2 NW 19 22 10 12 1012.0 1009.9 0.0
24/09:30pm 9.8 6.7 7.4 85 1.2 W 13 17 7 9 1012.1 1010.0 0.0
24/09:00pm 9.6 6.2 7.5 87 1.1 WNW 15 17 8 9 1012.6 1010.5 0.0
24/08:30pm 9.3 6.5 7.1 86 1.1 NW 11 15 6 8 1012.3 1010.2 0.0
24/08:00pm 10.0 6.8 6.7 80 1.7 NW 13 15 7 8 1012.4 1010.3 0.0
24/07:30pm 10.4 7.4 6.2 75 2.1 NW 11 11 6 6 1012.0 1009.9 0.0
24/07:00pm 11.2 7.8 6.1 71 2.5 NW 13 15 7 8 1011.9 1009.8 0.0
24/06:30pm 12.3 9.0 6.4 67 3.0 WNW 13 15 7 8 1012.3 1010.2 0.0
24/06:00pm 12.1 8.6 5.3 63 3.4 WNW 13 13 7 7 1012.0 1009.9 0.0
24/05:30pm 14.6 10.9 4.6 51 4.9 WNW 13 17 7 9 1011.8 1009.7 0.0
24/05:00pm 16.1 10.9 3.5 43 6.2 WNW 20 24 11 13 1011.5 1009.4 0.0
24/04:30pm 16.8 12.8 5.1 46 5.9 W 15 20 8 11 1011.4 1009.2 0.0
24/04:00pm 17.1 13.3 4.1 42 6.5 WNW 13 20 7 11 1011.1 1009.0 0.0
24/03:30pm 17.1 13.4 4.4 43 6.4 W 13 17 7 9 1011.0 1008.9 0.0
24/03:00pm 16.8 13.4 4.2 43 6.3 SW 11 17 6 9 1011.3 1009.1 0.0
24/02:30pm 16.9 13.2 4.6 44 6.2 W 13 22 7 12 1011.3 1009.1 0.0
24/02:00pm 16.7 13.0 6.2 50 5.4 WSW 15 20 8 11 1011.1 1009.0 0.0
24/01:30pm 16.0 12.5 7.0 55 4.7 W 15 20 8 11 1011.7 1009.6 0.0
24/01:00pm 16.1 11.6 6.8 54 4.9 W 20 28 11 15 1012.4 1010.3 0.0
24/12:30pm 15.2 11.1 6.2 55 4.6 WSW 17 24 9 13 1012.7 1010.6 0.0
24/12:00pm 16.2 12.2 8.2 59 4.3 WSW 19 28 10 15 1013.0 1010.9 0.0
24/11:30am 15.7 12.4 4.7 48 5.5 NW 11 20 6 11 1013.3 1011.2 0.0
24/11:00am 15.6 12.3 6.3 54 4.8 WNW 13 24 7 13 1013.7 1011.6 0.0
24/10:30am 14.8 12.3 6.6 58 4.2 WNW 9 13 5 7 1014.0 1012.0 0.0
24/10:00am 14.7 12.4 7.5 62 3.8 N 9 13 5 7 1014.4 1012.3 0.0
24/09:30am 13.9 12.1 8.1 68 3.1 NNW 7 13 4 7 1014.7 1012.7 0.0
24/09:00am 12.9 11.7 8.2 73 2.5 NNE 4 11 2 6 1014.7 1012.7 0.2
24/08:30am 12.5 11.4 10.0 85 1.4 E 6 7 3 4 1014.7 1012.7 0.2
24/08:00am 10.8 10.6 10.5 98 0.2 NE 2 6 1 3 1014.7 1012.7 0.2
24/07:30am 9.4 8.1 9.1 98 0.2 NE 6 7 3 4 1014.7 1012.7 0.2
24/07:00am 7.8 6.9 7.8 100 0.0 NE 2 7 1 4 1014.6 1012.5 0.2
24/06:44am 7.4 6.8 7.4 100 0.0 CALM 0 0 0 0 1014.6 1012.5 0.2
24/06:30am 6.2 5.3 6.2 100 0.0 CALM 0 0 0 0 1014.4 1012.3 0.2
24/06:00am 5.5 4.5 5.5 100 0.0 CALM 0 0 0 0 1014.1 1012.1 0.2
24/05:49am 5.2 4.1 5.2 100 0.0 CALM 0 0 0 0 1014.0 1012.0 0.2
24/05:30am 5.3 4.2 5.3 100 0.0 CALM 0 4 0 2 1013.8 1011.7 0.2
24/05:00am 5.8 4.5 5.8 100 0.0 SW 2 6 1 3 1013.5 1011.4 0.2
24/04:30am 5.9 5.0 5.9 100 0.0 CALM 0 0 0 0 1013.1 1011.1 0.2
24/04:00am 5.6 4.6 5.5 99 0.0 CALM 0 0 0 0 1012.8 1010.7 0.2
24/03:53am 5.6 3.8 5.5 99 0.0 N 4 6 2 3 1012.8 1010.7 0.2
24/03:30am 4.6 1.7 4.5 99 0.0 N 9 11 5 6 1012.8 1010.7 0.2
24/03:01am 4.3 1.7 4.2 99 0.0 N 7 9 4 5 1012.9 1010.8 0.2
24/03:00am 4.4 1.8 4.3 99 0.0 N 7 9 4 5 1012.9 1010.8 0.2
24/02:30am 5.2 2.8 5.1 99 0.0 NNE 7 9 4 5 1013.1 1011.1 0.2
24/02:00am 5.9 3.8 5.8 99 0.0 N 6 7 3 4 1013.3 1011.2 0.2
24/01:30am 5.6 3.4 5.5 99 0.0 N 6 7 3 4 1013.6 1011.5 0.2
24/01:00am 4.6 2.0 4.3 98 0.1 N 7 7 4 4 1013.7 1011.6 0.2
24/12:30am 4.8 2.3 4.5 98 0.1 NNE 7 9 4 5 1013.8 1011.7 0.2
24/12:00am 6.2 4.5 5.9 98 0.1 W 4 6 2 3 1013.8 1011.7 0.2
 
Date/Time
EST
Temp
°C
App
Temp
°C
Dew
Point
°C
Rel
Hum
%
Delta-T
°C
Wind Press
QNH
hPa
Press
MSL
hPa
Rain since
9am
mm
Dir  Spd
km/h
Gust
km/h
Spd
kts
Gust
kts
23/11:30pm 6.9 5.0 6.8 99 0.0 NNW 6 6 3 3 1014.0 1012.0 0.2
23/11:00pm 5.7 3.6 5.6 99 0.0 N 6 7 3 4 1014.1 1012.1 0.2
23/10:30pm 4.9 2.6 4.6 98 0.1 NE 6 9 3 5 1014.1 1012.1 0.2

Other Formats:

Comma delimited format used in spreadsheet applications
http://www.bom.gov.au/fwo/IDN60801/IDN60801.95773.axf

JavaScript Object Notation format (JSON) in row-major order
http://www.bom.gov.au/fwo/IDN60801/IDN60801.95773.json